Time;durP1;ratioP1;P1;durP2;ratioP2;P2;SDS_P1;SDS_P2;PMS_P1;PMS_P2;Temp;Humidity;BMP_temperature;BMP_pressure;BME280_temperature;BME280_humidity;BME280_pressure;Samples;Min_cycle;Max_cycle;Signal;HPM_P1;HPM_P2
2022/12/14 00:00:13;;;;;;;;;;;-4.20;99.90;;;;;;5065671;28;20250;-68
2022/12/14 00:02:40;;;;;;;;;;;-4.20;99.90;;;;;;5066391;28;19974;-67
2022/12/14 00:05:08;;;;;;;;;;;-3.20;99.90;;;;;;5066199;28;20246;-67
2022/12/14 00:07:35;;;;;;;;;;;-4.20;99.90;;;;;;5065540;28;19952;-68
2022/12/14 00:10:01;;;;;;;;;;;-4.10;99.90;;;;;;5066391;28;20003;-67
2022/12/14 00:12:28;;;;;;;;;;;-4.10;99.90;;;;;;5066468;28;19952;-67
2022/12/14 00:14:55;;;;;;;;;;;-4.10;99.90;;;;;;5065958;28;20262;-68
2022/12/14 00:17:22;;;;;;;;;;;-4.10;99.90;;;;;;5065960;28;19959;-68
2022/12/14 00:19:49;;;;;;;;;;;-4.10;99.90;;;;;;5066456;28;20094;-67
2022/12/14 00:22:17;;;;;;;;;;;-4.10;99.90;;;;;;5066500;28;19952;-69
2022/12/14 00:24:43;;;;;;;;;;;-4.00;99.90;;;;;;5065906;28;19967;-68
2022/12/14 00:27:10;;;;;;;;;;;-4.00;99.90;;;;;;5065681;28;19952;-68
2022/12/14 00:29:36;;;;;;;;;;;-4.00;99.90;;;;;;5066307;28;19970;-68
2022/12/14 00:32:03;;;;;;;;;;;-4.10;99.90;;;;;;5065895;28;20173;-70
2022/12/14 00:34:30;;;;;;;;;;;-4.00;99.90;;;;;;5065811;28;20169;-68
2022/12/14 00:36:56;;;;;;;;;;;-4.00;99.90;;;;;;5065150;28;19921;-67
2022/12/14 00:39:24;;;;;;;;;;;-4.00;99.90;;;;;;5065921;28;19920;-68
2022/12/14 00:41:51;;;;;;;;;;;-4.00;99.90;;;;;;5066025;28;19963;-68
2022/12/14 00:44:18;;;;;;;;;;;-3.90;99.90;;;;;;5065713;28;19988;-68
2022/12/14 00:46:44;;;;;;;;;;;-3.90;99.90;;;;;;5064959;28;20209;-68
2022/12/14 00:49:11;;;;;;;;;;;-3.90;99.90;;;;;;5065602;28;19960;-68
2022/12/14 00:51:37;;;;;;;;;;;-3.90;99.90;;;;;;5065466;28;20268;-68
2022/12/14 00:54:04;;;;;;;;;;;-3.90;99.90;;;;;;5065372;28;20251;-68
2022/12/14 00:56:32;;;;;;;;;;;-3.90;99.90;;;;;;5065065;28;19960;-67
2022/12/14 00:58:59;;;;;;;;;;;-3.80;99.90;;;;;;5065659;28;20000;-67
2022/12/14 01:01:25;;;;;;;;;;;-3.80;99.90;;;;;;5065610;28;19983;-68
2022/12/14 01:04:15;;;;;;;;;;;-3.80;99.90;;;;;;5064893;28;19952;-68
2022/12/14 01:06:39;;;;;;;;;;;-3.90;99.90;;;;;;5064428;28;19921;-67
2022/12/14 01:09:06;;;;;;;;;;;-3.90;99.90;;;;;;5065467;28;20288;-67
2022/12/14 01:11:34;;;;;;;;;;;-3.90;99.90;;;;;;5064950;28;19954;-68
2022/12/14 01:14:01;;;;;;;;;;;-3.90;99.90;;;;;;5065215;28;19921;-68
2022/12/14 01:16:27;;;;;;;;;;;-3.80;99.90;;;;;;5064581;28;19991;-68
2022/12/14 01:19:00;;;;;;;;;;;-3.80;99.90;;;;;;5062453;28;19992;-67
2022/12/14 01:21:27;;;;;;;;;;;-3.80;99.90;;;;;;5064739;28;20259;-68
2022/12/14 01:23:55;;;;;;;;;;;-3.80;99.90;;;;;;5064593;28;19984;-68
2022/12/14 01:26:25;;;;;;;;;;;-3.80;99.90;;;;;;5061782;28;19956;-67
2022/12/14 01:28:56;;;;;;;;;;;-3.80;99.90;;;;;;5065032;28;20173;-68
2022/12/14 01:31:24;;;;;;;;;;;-3.80;99.90;;;;;;5065016;28;19988;-68
2022/12/14 01:33:50;;;;;;;;;;;-3.80;99.90;;;;;;5064642;28;19955;-67
2022/12/14 01:36:23;;;;;;;;;;;-3.80;99.90;;;;;;5061603;28;19963;-68
2022/12/14 01:38:52;;;;;;;;;;;-3.80;99.90;;;;;;5064725;28;19991;-68
2022/12/14 01:41:22;;;;;;;;;;;-3.80;99.90;;;;;;5064631;28;19984;-69
2022/12/14 01:43:50;;;;;;;;;;;-3.80;99.90;;;;;;5064725;28;19925;-68
2022/12/14 01:46:21;;;;;;;;;;;-3.80;99.90;;;;;;5064046;28;19956;-69
2022/12/14 01:48:49;;;;;;;;;;;-3.80;99.90;;;;;;5064651;28;19970;-68
2022/12/14 01:51:16;;;;;;;;;;;-3.80;99.90;;;;;;5064599;28;20188;-68
2022/12/14 01:53:42;;;;;;;;;;;-3.80;99.90;;;;;;5064747;28;20003;-69
2022/12/14 01:56:09;;;;;;;;;;;-3.70;99.90;;;;;;5063680;28;20285;-69
2022/12/14 01:58:36;;;;;;;;;;;-3.70;99.90;;;;;;5065178;28;19991;-69
2022/12/14 02:01:03;;;;;;;;;;;-3.70;99.90;;;;;;5064214;28;19993;-68
2022/12/14 02:03:33;;;;;;;;;;;-3.70;99.90;;;;;;5064456;28;20187;-68
2022/12/14 02:06:01;;;;;;;;;;;-3.70;99.90;;;;;;5063350;28;19968;-69
2022/12/14 02:08:28;;;;;;;;;;;-3.70;99.90;;;;;;5064207;28;19963;-69
2022/12/14 02:10:55;;;;;;;;;;;-3.70;99.90;;;;;;5064134;28;19963;-69
2022/12/14 02:13:25;;;;;;;;;;;-3.70;99.90;;;;;;5064183;28;19952;-68
2022/12/14 02:15:52;;;;;;;;;;;-3.60;99.90;;;;;;5063739;28;19979;-69
2022/12/14 02:18:27;;;;;;;;;;;-3.60;99.90;;;;;;5060372;28;19955;-70
2022/12/14 02:21:03;;;;;;;;;;;-3.60;99.90;;;;;;5064207;28;20171;-68
2022/12/14 02:23:50;;;;;;;;;;;-3.60;99.90;;;;;;5063792;28;19927;-69
2022/12/14 02:26:36;;;;;;;;;;;-3.60;99.90;;;;;;5063388;28;19968;-69
2022/12/14 02:29:23;;;;;;;;;;;-3.60;99.90;;;;;;5063943;28;19963;-68
2022/12/14 02:31:52;;;;;;;;;;;-3.60;99.90;;;;;;5063739;28;20028;-68
2022/12/14 02:34:23;;;;;;;;;;;-3.60;99.90;;;;;;5063614;28;20247;-69
2022/12/14 02:36:53;;;;;;;;;;;-3.60;99.90;;;;;;5063220;28;19963;-68
2022/12/14 02:39:23;;;;;;;;;;;-3.60;99.90;;;;;;5063767;28;20165;-68
2022/12/14 02:41:54;;;;;;;;;;;-3.60;99.90;;;;;;5064073;28;19953;-68
2022/12/14 02:44:26;;;;;;;;;;;-3.50;99.90;;;;;;5063748;28;19984;-68
2022/12/14 02:46:56;;;;;;;;;;;-3.60;99.90;;;;;;5063068;28;19963;-68
2022/12/14 02:49:28;;;;;;;;;;;-3.60;99.90;;;;;;5063689;28;19964;-69
2022/12/14 02:51:56;;;;;;;;;;;-3.60;99.90;;;;;;5063817;28;19963;-69
2022/12/14 02:54:25;;;;;;;;;;;-3.60;99.90;;;;;;5063350;28;20240;-68
2022/12/14 02:56:54;;;;;;;;;;;-3.60;99.90;;;;;;5062627;28;19920;-68
2022/12/14 02:59:25;;;;;;;;;;;-3.60;99.90;;;;;;5062799;28;20363;-68
2022/12/14 03:01:52;;;;;;;;;;;-3.60;99.90;;;;;;5063446;28;20139;-68
2022/12/14 03:04:19;;;;;;;;;;;-3.60;99.90;;;;;;5063576;28;19988;-69
2022/12/14 03:06:51;;;;;;;;;;;-3.60;99.90;;;;;;5062950;28;19924;-68
2022/12/14 03:09:18;;;;;;;;;;;-3.60;99.90;;;;;;5063093;28;19951;-69
2022/12/14 03:11:46;;;;;;;;;;;-3.60;99.90;;;;;;5063519;28;19956;-68
2022/12/14 03:14:17;;;;;;;;;;;-3.60;99.90;;;;;;5063434;28;19952;-68
2022/12/14 03:16:46;;;;;;;;;;;-3.60;99.90;;;;;;5062923;28;19967;-68
2022/12/14 03:19:34;;;;;;;;;;;-3.50;99.90;;;;;;5060788;28;20012;-69
2022/12/14 03:22:07;;;;;;;;;;;-3.60;99.90;;;;;;5063146;28;19956;-70
2022/12/14 03:24:37;;;;;;;;;;;-3.60;99.90;;;;;;5063067;28;19984;-69
2022/12/14 03:27:05;;;;;;;;;;;-3.60;99.90;;;;;;5064394;28;20228;-70
2022/12/14 03:29:34;;;;;;;;;;;-3.60;99.90;;;;;;5066951;28;19984;-68
2022/12/14 03:32:03;;;;;;;;;;;-3.60;99.90;;;;;;5066892;28;19952;-67
2022/12/14 03:34:33;;;;;;;;;;;-3.60;99.90;;;;;;5066890;28;20224;-68
2022/12/14 03:37:04;;;;;;;;;;;-3.60;99.90;;;;;;5063768;28;19921;-68
2022/12/14 03:39:32;;;;;;;;;;;-3.50;99.90;;;;;;5066791;28;19920;-68
2022/12/14 03:42:04;;;;;;;;;;;-3.50;99.90;;;;;;5067184;28;19987;-68
2022/12/14 03:44:34;;;;;;;;;;;-3.50;99.90;;;;;;5066810;28;19985;-68
2022/12/14 03:47:06;;;;;;;;;;;-3.40;99.90;;;;;;5066054;28;19921;-68
2022/12/14 03:49:43;;;;;;;;;;;-3.40;99.90;;;;;;5066420;28;19947;-68
2022/12/14 03:52:16;;;;;;;;;;;-3.40;99.90;;;;;;5066945;28;19952;-68
2022/12/14 03:54:48;;;;;;;;;;;-3.30;99.90;;;;;;5066732;28;19952;-69
2022/12/14 03:57:20;;;;;;;;;;;-3.40;99.90;;;;;;5066149;28;19952;-69
2022/12/14 03:59:52;;;;;;;;;;;-3.40;99.90;;;;;;5066610;28;19948;-68
2022/12/14 04:02:23;;;;;;;;;;;-3.40;99.90;;;;;;5066415;28;19928;-68
2022/12/14 04:04:53;;;;;;;;;;;-3.40;99.90;;;;;;5066249;28;19958;-68
2022/12/14 04:07:24;;;;;;;;;;;-3.40;99.90;;;;;;5066057;28;19952;-68
2022/12/14 04:09:52;;;;;;;;;;;-3.40;99.90;;;;;;5066470;28;19953;-68
2022/12/14 04:20:41;;;;;;;;;;;-3.30;99.90;;;;;;5066098;28;19971;-69
2022/12/14 04:23:10;;;;;;;;;;;-3.30;99.90;;;;;;5066285;28;19952;-69
2022/12/14 04:31:11;;;;;;;;;;;-3.30;99.90;;;;;;5066028;28;19940;-68
2022/12/14 04:33:49;;;;;;;;;;;-3.10;99.90;;;;;;5065748;28;20212;-69
2022/12/14 04:36:19;;;;;;;;;;;-3.20;99.90;;;;;;5062827;28;19966;-69
2022/12/14 04:38:48;;;;;;;;;;;-3.20;99.90;;;;;;5065043;28;19963;-68
2022/12/14 04:41:17;;;;;;;;;;;-3.20;99.90;;;;;;5066438;28;19966;-69
2022/12/14 04:43:45;;;;;;;;;;;-3.20;99.90;;;;;;5065754;28;19992;-69
2022/12/14 04:46:12;;;;;;;;;;;-3.20;99.90;;;;;;5064896;28;19987;-69
2022/12/14 04:48:42;;;;;;;;;;;-3.20;99.90;;;;;;5065559;28;19963;-68
2022/12/14 04:51:10;;;;;;;;;;;-3.20;99.90;;;;;;5065887;28;19984;-67
2022/12/14 04:53:38;;;;;;;;;;;-3.10;99.90;;;;;;5065486;28;20247;-68
2022/12/14 04:56:06;;;;;;;;;;;-3.20;99.90;;;;;;5064681;28;19971;-68
2022/12/14 04:58:33;;;;;;;;;;;-3.10;99.90;;;;;;5065221;28;19959;-68
2022/12/14 05:01:08;;;;;;;;;;;-3.10;99.90;;;;;;5065473;28;19924;-68
2022/12/14 05:03:37;;;;;;;;;;;-3.10;99.90;;;;;;5065606;28;19962;-68
2022/12/14 05:06:09;;;;;;;;;;;-3.00;99.90;;;;;;5064582;28;19952;-68
2022/12/14 05:08:44;;;;;;;;;;;-3.10;99.90;;;;;;5065399;28;19921;-68
2022/12/14 05:11:15;;;;;;;;;;;-3.10;99.90;;;;;;5065370;28;20168;-69
2022/12/14 05:13:45;;;;;;;;;;;-3.10;99.90;;;;;;5065293;28;19952;-68
2022/12/14 05:16:15;;;;;;;;;;;-3.10;99.90;;;;;;5064626;28;20133;-68
2022/12/14 05:18:43;;;;;;;;;;;-3.00;99.90;;;;;;5062422;28;19971;-68
2022/12/14 05:21:45;;;;;;;;;;;-3.00;99.90;;;;;;5065158;28;19984;-68
2022/12/14 05:23:59;;;;;;;;;;;-2.90;99.90;;;;;;5064736;28;19928;-68
2022/12/14 05:26:25;;;;;;;;;;;-3.00;99.90;;;;;;5064510;28;20160;-68
2022/12/14 05:28:52;;;;;;;;;;;-3.00;99.90;;;;;;5064694;28;19952;-67
2022/12/14 05:31:18;;;;;;;;;;;-3.00;99.90;;;;;;5065002;28;19927;-67
2022/12/14 05:33:45;;;;;;;;;;;-2.90;99.90;;;;;;5064884;28;19959;-67
2022/12/14 05:36:13;;;;;;;;;;;-2.90;99.90;;;;;;5064111;28;19927;-68
2022/12/14 05:38:40;;;;;;;;;;;-3.00;99.90;;;;;;5064812;28;19921;-67
2022/12/14 05:41:06;;;;;;;;;;;-3.00;99.90;;;;;;5064641;28;19956;-68
2022/12/14 05:43:39;;;;;;;;;;;-2.90;99.90;;;;;;5063196;28;19988;-67
2022/12/14 05:46:06;;;;;;;;;;;-3.00;99.90;;;;;;5063758;28;20002;-68
2022/12/14 05:48:33;;;;;;;;;;;-2.90;99.90;;;;;;5064616;28;19953;-67
2022/12/14 05:51:04;;;;;;;;;;;-2.90;99.90;;;;;;5064287;28;19928;-68
2022/12/14 05:53:48;;;;;;;;;;;-2.90;99.90;;;;;;5064277;28;19921;-69
2022/12/14 05:56:15;;;;;;;;;;;-2.90;99.90;;;;;;5063284;28;19952;-69
2022/12/14 05:58:43;;;;;;;;;;;-2.90;99.90;;;;;;5061105;28;19949;-69
2022/12/14 06:01:11;;;;;;;;;;;-2.90;99.90;;;;;;5064326;28;19952;-69
2022/12/14 06:03:38;;;;;;;;;;;-2.90;99.90;;;;;;5060872;28;20260;-68
2022/12/14 06:06:05;;;;;;;;;;;-2.80;99.90;;;;;;5043643;28;19983;-69
2022/12/14 06:08:32;;;;;;;;;;;-2.80;99.90;;;;;;5044080;28;19980;-71
2022/12/14 06:11:05;;;;;;;;;;;-2.80;99.90;;;;;;5044323;28;19925;-68
2022/12/14 06:13:31;;;;;;;;;;;-2.70;99.90;;;;;;5044444;28;19920;-68
2022/12/14 06:16:06;;;;;;;;;;;-2.80;99.90;;;;;;5043673;28;19972;-67
2022/12/14 06:18:33;;;;;;;;;;;-2.80;99.90;;;;;;5044230;28;20286;-68
2022/12/14 06:21:00;;;;;;;;;;;-2.80;99.90;;;;;;5044043;28;19925;-68
2022/12/14 06:23:27;;;;;;;;;;;-2.80;99.90;;;;;;5043777;28;19929;-70
2022/12/14 06:25:54;;;;;;;;;;;-2.80;99.90;;;;;;5059111;28;19949;-72
2022/12/14 06:28:22;;;;;;;;;;;-2.80;99.90;;;;;;5063263;28;19921;-68
2022/12/14 06:30:49;;;;;;;;;;;-2.80;99.90;;;;;;5063490;28;20283;-68
2022/12/14 06:33:15;;;;;;;;;;;-2.70;99.90;;;;;;5063763;28;19959;-68
2022/12/14 06:35:42;;;;;;;;;;;-2.70;99.90;;;;;;5063325;28;19944;-67
2022/12/14 06:38:09;;;;;;;;;;;-2.70;99.90;;;;;;5063399;28;19987;-67
2022/12/14 06:40:35;;;;;;;;;;;-2.70;99.90;;;;;;5063659;28;20000;-67
2022/12/14 06:43:02;;;;;;;;;;;-2.70;99.90;;;;;;5063365;28;19952;-68
2022/12/14 06:45:30;;;;;;;;;;;-2.70;99.90;;;;;;5063684;28;19921;-68
2022/12/14 06:47:57;;;;;;;;;;;-2.80;99.90;;;;;;5062937;28;19967;-69
2022/12/14 06:50:24;;;;;;;;;;;-2.80;99.90;;;;;;5063362;28;19935;-68
2022/12/14 06:52:51;;;;;;;;;;;-2.70;99.90;;;;;;5063696;28;20175;-69
2022/12/14 06:55:18;;;;;;;;;;;-2.60;99.90;;;;;;5062376;28;19984;-68
2022/12/14 06:57:45;;;;;;;;;;;-2.70;99.90;;;;;;5063004;28;19924;-69
2022/12/14 07:00:12;;;;;;;;;;;-2.70;99.90;;;;;;5063064;28;20190;-68
2022/12/14 07:02:40;;;;;;;;;;;-2.70;99.90;;;;;;5066716;28;19921;-68
2022/12/14 07:05:10;;;;;;;;;;;-2.70;99.90;;;;;;5067192;28;19963;-68
2022/12/14 07:07:37;;;;;;;;;;;-2.70;99.90;;;;;;5064623;28;19920;-68
2022/12/14 07:10:04;;;;;;;;;;;-2.70;99.90;;;;;;5067323;28;19960;-68
2022/12/14 07:12:31;;;;;;;;;;;-2.70;99.90;;;;;;5050630;28;20121;-68
2022/12/14 07:14:58;;;;;;;;;;;-2.70;99.90;;;;;;5066071;28;19983;-69
2022/12/14 07:17:25;;;;;;;;;;;-2.70;99.90;;;;;;5056513;28;19921;-68
2022/12/14 07:19:53;;;;;;;;;;;-2.80;99.90;;;;;;5046911;28;19957;-68
2022/12/14 07:22:19;;;;;;;;;;;-2.80;99.90;;;;;;5047354;28;19921;-69
2022/12/14 07:24:46;;;;;;;;;;;-2.80;99.90;;;;;;5046810;28;19980;-68
2022/12/14 07:27:13;;;;;;;;;;;-2.80;99.90;;;;;;5065064;28;19921;-68
2022/12/14 07:29:39;;;;;;;;;;;-2.70;99.90;;;;;;5066895;28;20231;-69
2022/12/14 07:32:06;;;;;;;;;;;-2.80;99.90;;;;;;5066938;28;19979;-68
2022/12/14 07:34:32;;;;;;;;;;;-2.80;99.90;;;;;;5067007;28;19956;-68
2022/12/14 07:37:02;;;;;;;;;;;-2.80;99.90;;;;;;5060286;28;20252;-70
2022/12/14 07:39:28;;;;;;;;;;;-2.70;99.90;;;;;;5066981;28;20256;-69
2022/12/14 07:41:55;;;;;;;;;;;-2.70;99.90;;;;;;5066272;28;19927;-68
2022/12/14 07:44:21;;;;;;;;;;;-2.70;99.90;;;;;;5061730;28;19959;-68
2022/12/14 07:46:48;;;;;;;;;;;-2.70;99.90;;;;;;5065065;28;19956;-68
2022/12/14 07:49:15;;;;;;;;;;;-2.70;99.90;;;;;;5066582;28;19956;-68
2022/12/14 07:51:43;;;;;;;;;;;-2.70;99.90;;;;;;5066317;28;19979;-68
2022/12/14 07:54:11;;;;;;;;;;;-2.70;99.90;;;;;;5063304;28;19928;-68
2022/12/14 07:56:39;;;;;;;;;;;-2.70;99.90;;;;;;5056809;28;19929;-68
2022/12/14 07:59:07;;;;;;;;;;;-2.70;99.90;;;;;;5058943;28;20105;-68
2022/12/14 08:01:34;;;;;;;;;;;-2.70;99.90;;;;;;5066146;28;19952;-68
2022/12/14 08:04:04;;;;;;;;;;;-2.70;99.90;;;;;;5047683;28;19943;-68
2022/12/14 08:06:31;;;;;;;;;;;-2.70;99.90;;;;;;5065316;28;19920;-69
2022/12/14 08:08:58;;;;;;;;;;;-2.60;99.90;;;;;;5059526;28;19928;-68
2022/12/14 08:11:26;;;;;;;;;;;-2.50;99.90;;;;;;5046039;28;20157;-68
2022/12/14 08:13:53;;;;;;;;;;;-2.50;99.90;;;;;;5046100;28;20113;-68
2022/12/14 08:16:20;;;;;;;;;;;-2.50;99.90;;;;;;5056603;28;20185;-68
2022/12/14 08:18:48;;;;;;;;;;;-2.60;99.90;;;;;;5063647;28;19921;-69
2022/12/14 08:21:17;;;;;;;;;;;-2.60;99.90;;;;;;5065956;28;19971;-70
2022/12/14 08:23:44;;;;;;;;;;;-2.60;99.90;;;;;;5051139;28;19984;-68
2022/12/14 08:26:10;;;;;;;;;;;-2.50;99.90;;;;;;5057198;28;19980;-68
2022/12/14 08:28:38;;;;;;;;;;;-2.60;99.90;;;;;;5065429;28;19956;-68
2022/12/14 08:31:06;;;;;;;;;;;-2.50;99.90;;;;;;5065589;28;19956;-68
2022/12/14 08:33:33;;;;;;;;;;;-2.50;99.90;;;;;;5065295;28;20156;-68
2022/12/14 08:36:08;;;;;;;;;;;-2.40;99.90;;;;;;5061907;28;19927;-69
2022/12/14 08:38:35;;;;;;;;;;;-2.50;99.90;;;;;;5064385;28;19943;-68
2022/12/14 08:41:03;;;;;;;;;;;-2.50;99.90;;;;;;5045611;28;19921;-68
2022/12/14 08:43:29;;;;;;;;;;;-2.50;99.90;;;;;;5045963;28;19927;-68
2022/12/14 08:45:57;;;;;;;;;;;-2.50;99.90;;;;;;5045131;28;19960;-68
2022/12/14 08:48:24;;;;;;;;;;;-2.50;99.90;;;;;;5060467;28;19927;-67
2022/12/14 08:50:51;;;;;;;;;;;-2.50;99.90;;;;;;5065826;28;19921;-67
2022/12/14 08:53:18;;;;;;;;;;;-2.50;99.90;;;;;;5065700;28;20165;-68
2022/12/14 08:55:44;;;;;;;;;;;-2.50;99.90;;;;;;5064929;28;20232;-69
2022/12/14 08:58:11;;;;;;;;;;;-2.50;99.90;;;;;;5065060;28;19948;-68
2022/12/14 09:00:38;;;;;;;;;;;-2.50;99.90;;;;;;5061660;28;19964;-68
2022/12/14 09:03:06;;;;;;;;;;;-2.50;99.90;;;;;;5065256;28;20082;-68
2022/12/14 09:05:33;;;;;;;;;;;-2.50;99.90;;;;;;5065163;28;19959;-68
2022/12/14 09:08:00;;;;;;;;;;;-2.50;99.90;;;;;;5064544;28;20228;-68
2022/12/14 09:10:27;;;;;;;;;;;-2.40;99.90;;;;;;5065319;28;19952;-68
2022/12/14 09:12:53;;;;;;;;;;;-2.40;99.90;;;;;;5065377;28;20180;-70
2022/12/14 09:15:20;;;;;;;;;;;-2.40;99.90;;;;;;5064926;28;19960;-68
2022/12/14 09:17:48;;;;;;;;;;;-2.40;99.90;;;;;;5061980;28;19921;-68
2022/12/14 09:20:17;;;;;;;;;;;-2.40;99.90;;;;;;5068235;28;19988;-69
2022/12/14 09:22:44;;;;;;;;;;;-2.40;99.90;;;;;;5065440;28;19963;-68
2022/12/14 09:25:11;;;;;;;;;;;-2.30;99.90;;;;;;5063807;28;19920;-68
2022/12/14 09:27:37;;;;;;;;;;;-2.30;99.90;;;;;;5064275;28;19927;-68
2022/12/14 09:30:05;;;;;;;;;;;-2.30;99.90;;;;;;5064869;28;19988;-68
2022/12/14 09:32:31;;;;;;;;;;;-2.30;99.90;;;;;;5065057;28;19963;-68
2022/12/14 09:34:58;;;;;;;;;;;-2.30;99.90;;;;;;5064844;28;19921;-68
2022/12/14 09:37:26;;;;;;;;;;;-2.30;99.90;;;;;;5063943;28;19920;-68
2022/12/14 09:39:53;;;;;;;;;;;-2.20;99.90;;;;;;5063388;28;19979;-69
2022/12/14 09:42:30;;;;;;;;;;;-2.20;99.90;;;;;;5064264;28;20015;-68
2022/12/14 09:44:59;;;;;;;;;;;-2.20;99.90;;;;;;5064568;28;19921;-68
2022/12/14 09:47:29;;;;;;;;;;;-2.20;99.90;;;;;;5044195;28;19956;-68
2022/12/14 09:49:58;;;;;;;;;;;-2.20;99.90;;;;;;5044429;28;19968;-69
2022/12/14 09:52:29;;;;;;;;;;;-2.30;99.90;;;;;;5044491;28;19964;-67
2022/12/14 09:54:58;;;;;;;;;;;-2.30;99.90;;;;;;5044492;28;19963;-68
2022/12/14 09:57:27;;;;;;;;;;;-2.20;99.90;;;;;;5052909;28;20252;-68
2022/12/14 09:59:54;;;;;;;;;;;-2.20;99.90;;;;;;5043381;28;19921;-68
2022/12/14 10:02:35;;;;;;;;;;;-2.20;99.90;;;;;;5056437;28;19920;-69
2022/12/14 10:05:06;;;;;;;;;;;-2.20;99.90;;;;;;5058747;28;19928;-68
2022/12/14 10:07:37;;;;;;;;;;;-2.20;99.90;;;;;;5063168;28;19979;-68
2022/12/14 10:10:10;;;;;;;;;;;-2.20;99.90;;;;;;5064060;28;19956;-68
2022/12/14 10:12:42;;;;;;;;;;;-2.10;99.90;;;;;;5064354;28;19988;-69
2022/12/14 10:15:14;;;;;;;;;;;-2.10;99.90;;;;;;5063752;28;19932;-67
2022/12/14 10:17:49;;;;;;;;;;;-2.10;99.90;;;;;;5060275;28;20263;-69
2022/12/14 10:20:19;;;;;;;;;;;-2.00;99.90;;;;;;5043796;28;19957;-69
2022/12/14 10:22:48;;;;;;;;;;;-2.00;99.90;;;;;;5044139;28;19925;-70
2022/12/14 10:25:17;;;;;;;;;;;-2.10;99.90;;;;;;5043696;28;19927;-70
2022/12/14 10:27:47;;;;;;;;;;;-2.10;99.90;;;;;;5048571;28;19959;-70
2022/12/14 10:30:15;;;;;;;;;;;-2.20;99.90;;;;;;5063864;28;19952;-68
2022/12/14 10:32:45;;;;;;;;;;;-2.10;99.90;;;;;;5063752;28;20251;-69
2022/12/14 10:35:13;;;;;;;;;;;-2.20;99.90;;;;;;5063396;28;19921;-68
2022/12/14 10:37:42;;;;;;;;;;;-2.20;99.90;;;;;;5062743;28;19921;-68
2022/12/14 10:40:20;;;;;;;;;;;-2.20;99.90;;;;;;5063452;28;19924;-68
2022/12/14 10:42:49;;;;;;;;;;;-2.20;99.90;;;;;;5063768;28;19997;-69
2022/12/14 10:45:21;;;;;;;;;;;-2.20;99.90;;;;;;5063669;28;19985;-68
2022/12/14 10:47:50;;;;;;;;;;;-2.20;99.90;;;;;;5062515;28;19963;-69
2022/12/14 10:50:20;;;;;;;;;;;-2.20;99.90;;;;;;5063796;28;19928;-70
2022/12/14 10:52:48;;;;;;;;;;;-2.20;99.90;;;;;;5047211;28;19944;-68
2022/12/14 10:55:17;;;;;;;;;;;-2.20;99.90;;;;;;5043294;28;20117;-67
2022/12/14 10:57:45;;;;;;;;;;;-2.20;99.90;;;;;;5044281;28;19921;-68
2022/12/14 11:00:13;;;;;;;;;;;-2.30;99.90;;;;;;5063711;28;19980;-68
2022/12/14 11:02:41;;;;;;;;;;;-2.30;99.90;;;;;;5063638;28;19971;-69
2022/12/14 11:05:14;;;;;;;;;;;-2.30;99.90;;;;;;5063511;28;19984;-69
2022/12/14 11:07:42;;;;;;;;;;;-2.20;99.90;;;;;;5062659;28;19963;-68
2022/12/14 11:10:18;;;;;;;;;;;-2.20;99.90;;;;;;5063459;28;19966;-68
2022/12/14 11:13:00;;;;;;;;;;;-2.10;99.90;;;;;;5063458;28;19956;-68
2022/12/14 11:15:28;;;;;;;;;;;-2.10;99.90;;;;;;5042610;28;19952;-68
2022/12/14 11:18:00;;;;;;;;;;;-2.00;99.90;;;;;;5056980;28;19963;-69
2022/12/14 11:20:27;;;;;;;;;;;-1.90;99.90;;;;;;5063301;28;19952;-68
2022/12/14 11:22:55;;;;;;;;;;;-1.90;99.90;;;;;;5051833;28;19999;-68
2022/12/14 11:25:36;;;;;;;;;;;-1.80;99.90;;;;;;5052645;28;19921;-68
2022/12/14 11:28:14;;;;;;;;;;;-1.80;99.90;;;;;;5060371;28;19964;-68
2022/12/14 11:30:51;;;;;;;;;;;-1.70;99.90;;;;;;5059988;28;19956;-68
2022/12/14 11:33:18;;;;;;;;;;;-1.60;99.90;;;;;;5063234;28;19959;-69
2022/12/14 11:35:49;;;;;;;;;;;-1.60;99.90;;;;;;5062334;28;20209;-68
2022/12/14 11:38:16;;;;;;;;;;;-1.50;99.90;;;;;;5062844;28;19920;-70
2022/12/14 11:40:43;;;;;;;;;;;-1.50;99.90;;;;;;5063402;28;19963;-68
2022/12/14 11:43:19;;;;;;;;;;;-1.40;99.90;;;;;;5063217;28;19967;-68
2022/12/14 11:45:50;;;;;;;;;;;-1.40;99.90;;;;;;5062513;28;20244;-68
2022/12/14 11:48:20;;;;;;;;;;;-1.30;99.90;;;;;;5064887;28;19952;-67
2022/12/14 11:50:48;;;;;;;;;;;-1.30;99.90;;;;;;5066576;28;19921;-68
2022/12/14 11:53:16;;;;;;;;;;;-1.30;99.90;;;;;;5046588;28;19960;-68
2022/12/14 11:55:44;;;;;;;;;;;-1.30;99.90;;;;;;5046465;28;19964;-67
2022/12/14 11:58:15;;;;;;;;;;;-1.30;99.90;;;;;;5046501;28;19984;-68
2022/12/14 12:00:44;;;;;;;;;;;-1.30;99.90;;;;;;5046817;28;19921;-68
2022/12/14 12:03:14;;;;;;;;;;;-1.40;99.90;;;;;;5055733;28;19964;-68
2022/12/14 12:05:42;;;;;;;;;;;-1.40;99.90;;;;;;5061453;28;20112;-68
2022/12/14 12:08:17;;;;;;;;;;;-1.40;99.90;;;;;;5047646;28;20350;-69
2022/12/14 12:10:45;;;;;;;;;;;-1.40;99.90;;;;;;5065107;28;20011;-68
2022/12/14 12:13:18;;;;;;;;;;;-1.30;99.90;;;;;;5066239;28;20176;-68
2022/12/14 12:15:48;;;;;;;;;;;-1.30;99.90;;;;;;5065836;28;19920;-70
2022/12/14 12:18:16;;;;;;;;;;;-1.20;99.90;;;;;;5065534;28;19927;-68
2022/12/14 12:20:46;;;;;;;;;;;-1.10;99.90;;;;;;5055532;28;19963;-68
2022/12/14 12:23:15;;;;;;;;;;;-1.10;99.90;;;;;;5060680;28;19944;-68
2022/12/14 12:25:43;;;;;;;;;;;-1.10;99.90;;;;;;5045708;28;19957;-71
2022/12/14 12:28:14;;;;;;;;;;;-1.10;99.90;;;;;;5045754;28;19925;-69
2022/12/14 12:30:45;;;;;;;;;;;-1.10;99.90;;;;;;5063220;28;19956;-69
2022/12/14 12:33:18;;;;;;;;;;;-1.10;99.90;;;;;;5065958;28;20201;-69
2022/12/14 12:35:48;;;;;;;;;;;-1.10;99.90;;;;;;5062922;28;20193;-69
2022/12/14 12:38:18;;;;;;;;;;;-1.10;99.90;;;;;;5046841;28;19956;-68
2022/12/14 12:40:52;;;;;;;;;;;-1.10;99.90;;;;;;5062812;28;19952;-69
2022/12/14 12:43:22;;;;;;;;;;;-1.20;99.90;;;;;;5066022;28;19956;-69
2022/12/14 12:45:53;;;;;;;;;;;-1.20;99.90;;;;;;5065002;28;19988;-69
2022/12/14 12:48:21;;;;;;;;;;;-1.20;99.90;;;;;;5065231;28;19988;-69
2022/12/14 12:50:49;;;;;;;;;;;-1.20;99.90;;;;;;5065503;28;19928;-69
2022/12/14 12:53:18;;;;;;;;;;;-1.20;99.90;;;;;;5059274;28;20117;-69
2022/12/14 12:55:47;;;;;;;;;;;-1.20;99.90;;;;;;5054529;28;19984;-69
2022/12/14 12:58:20;;;;;;;;;;;-1.20;99.90;;;;;;5064782;28;19953;-68
2022/12/14 13:00:50;;;;;;;;;;;-1.20;99.90;;;;;;5065049;28;19952;-70
2022/12/14 13:03:22;;;;;;;;;;;-1.20;99.90;;;;;;5064926;28;19921;-69
2022/12/14 13:05:50;;;;;;;;;;;-1.30;99.90;;;;;;5064879;28;19992;-69
2022/12/14 13:08:22;;;;;;;;;;;-1.30;99.90;;;;;;5064851;28;20224;-68
2022/12/14 13:10:49;;;;;;;;;;;-1.30;99.90;;;;;;5065530;28;19971;-69
2022/12/14 13:13:18;;;;;;;;;;;-1.30;99.90;;;;;;5065066;28;19927;-68
2022/12/14 13:15:46;;;;;;;;;;;-1.30;99.90;;;;;;5063752;28;19921;-70
2022/12/14 13:18:20;;;;;;;;;;;-1.30;99.90;;;;;;5063792;28;20149;-70
2022/12/14 13:20:48;;;;;;;;;;;-1.30;99.90;;;;;;5065008;28;19980;-71
2022/12/14 13:23:16;;;;;;;;;;;-1.30;99.90;;;;;;5064781;28;19920;-68
2022/12/14 13:25:45;;;;;;;;;;;-1.30;99.90;;;;;;5064508;28;19952;-69
2022/12/14 13:28:27;;;;;;;;;;;-1.20;99.90;;;;;;5064808;28;19921;-70
2022/12/14 13:31:14;;;;;;;;;;;-1.20;99.90;;;;;;5065336;28;19921;-70
2022/12/14 13:34:02;;;;;;;;;;;-1.10;99.90;;;;;;5064830;28;19984;-69
2022/12/14 13:36:48;;;;;;;;;;;-1.10;99.90;;;;;;5062201;28;19921;-69
2022/12/14 13:39:29;;;;;;;;;;;-1.10;99.90;;;;;;5042323;28;19952;-70
2022/12/14 13:42:01;;;;;;;;;;;-1.10;99.90;;;;;;5042300;28;19929;-69
2022/12/14 13:44:36;;;;;;;;;;;-1.20;99.90;;;;;;5052499;28;19921;-70
2022/12/14 13:47:05;;;;;;;;;;;-1.20;99.90;;;;;;5045336;28;19921;-70
2022/12/14 13:49:32;;;;;;;;;;;-1.20;99.90;;;;;;5045485;28;19951;-69
2022/12/14 13:52:00;;;;;;;;;;;-1.30;99.90;;;;;;5045176;28;20228;-68
2022/12/14 13:54:30;;;;;;;;;;;-1.30;99.90;;;;;;5061127;28;19921;-70
2022/12/14 13:57:03;;;;;;;;;;;-1.30;99.90;;;;;;5045685;28;19985;-70
2022/12/14 13:59:31;;;;;;;;;;;-1.30;99.90;;;;;;5046097;28;19948;-69
2022/12/14 14:01:59;;;;;;;;;;;-1.30;99.90;;;;;;5046705;28;19921;-70
2022/12/14 14:04:28;;;;;;;;;;;-1.30;99.90;;;;;;5049362;28;19975;-70
2022/12/14 14:06:55;;;;;;;;;;;-1.30;99.90;;;;;;5065913;28;19925;-70
2022/12/14 14:09:40;;;;;;;;;;;-1.30;99.90;;;;;;5066270;28;19921;-68
2022/12/14 14:12:22;;;;;;;;;;;-1.30;99.90;;;;;;5065308;28;19928;-69
2022/12/14 14:14:53;;;;;;;;;;;-1.20;99.90;;;;;;5064806;28;19921;-70
2022/12/14 14:17:23;;;;;;;;;;;-1.30;99.90;;;;;;5064099;28;19986;-69
2022/12/14 14:19:52;;;;;;;;;;;-1.30;99.90;;;;;;5064859;28;19956;-68
2022/12/14 14:22:20;;;;;;;;;;;-1.30;99.90;;;;;;5064677;28;19944;-69
2022/12/14 14:24:55;;;;;;;;;;;-1.30;99.90;;;;;;5058000;28;20084;-69
2022/12/14 14:27:23;;;;;;;;;;;-1.30;99.90;;;;;;5063657;28;19921;-69
2022/12/14 14:29:52;;;;;;;;;;;-1.30;99.90;;;;;;5064312;28;19921;-70
2022/12/14 14:32:35;;;;;;;;;;;-1.30;99.90;;;;;;5064777;28;19921;-69
2022/12/14 14:35:05;;;;;;;;;;;-1.30;99.90;;;;;;5064337;28;19959;-68
2022/12/14 14:37:33;;;;;;;;;;;-1.30;99.90;;;;;;5064768;28;19948;-69
2022/12/14 14:40:16;;;;;;;;;;;-1.40;99.90;;;;;;5063606;28;19940;-70
2022/12/14 14:42:47;;;;;;;;;;;-1.40;99.90;;;;;;5063390;28;19921;-70